Time;durP1;ratioP1;P1;durP2;ratioP2;P2;SDS_P1;SDS_P2;PMS_P1;PMS_P2;Temp;Humidity;BMP_temperature;BMP_pressure;BME280_temperature;BME280_humidity;BME280_pressure;Samples;Min_cycle;Max_cycle;Signal;HPM_P1;HPM_P2
2023/09/17 00:01:12;;;;;;;1187.50;999.90;;;18.70;99.90;;;;;;5034700;28;20485;-61
2023/09/17 00:03:40;;;;;;;1193.70;999.90;;;18.60;99.90;;;;;;5034888;28;20451;-62
2023/09/17 00:06:08;;;;;;;1197.27;999.90;;;18.60;99.90;;;;;;5034996;28;20453;-62
2023/09/17 00:08:35;;;;;;;1186.93;999.90;;;18.70;99.90;;;;;;5034359;28;20452;-62
2023/09/17 00:11:03;;;;;;;1184.70;999.90;;;18.60;99.90;;;;;;5034354;28;20473;-62
2023/09/17 00:13:30;;;;;;;1215.70;999.90;;;18.60;99.90;;;;;;5034862;28;20448;-62
2023/09/17 00:15:58;;;;;;;1215.53;999.90;;;18.70;99.90;;;;;;5034842;28;20448;-62
2023/09/17 00:18:26;;;;;;;1233.77;999.90;;;18.60;99.90;;;;;;5034565;28;20480;-62
2023/09/17 00:20:53;;;;;;;1224.03;999.90;;;18.60;99.90;;;;;;5033853;28;20960;-62
2023/09/17 00:23:20;;;;;;;1224.10;999.90;;;18.60;99.90;;;;;;5034516;28;20546;-62
2023/09/17 00:25:47;;;;;;;1211.23;999.90;;;18.50;99.90;;;;;;5034799;28;20483;-63
2023/09/17 00:28:14;;;;;;;1188.47;999.90;;;18.50;99.90;;;;;;5034643;28;20923;-63
2023/09/17 00:30:41;;;;;;;1166.73;999.90;;;18.50;99.90;;;;;;5033697;28;20486;-63
2023/09/17 00:33:08;;;;;;;1172.37;999.90;;;18.50;99.90;;;;;;5034722;28;20481;-63
2023/09/17 00:35:37;;;;;;;1160.23;999.90;;;18.50;99.90;;;;;;5034270;28;20941;-63
2023/09/17 00:38:04;;;;;;;1173.60;999.90;;;18.50;99.90;;;;;;5034282;28;20956;-63
2023/09/17 00:40:34;;;;;;;1177.30;999.90;;;18.50;99.90;;;;;;5033680;28;20504;-62
2023/09/17 00:43:01;;;;;;;1166.60;999.90;;;18.60;99.90;;;;;;5034438;28;20546;-63
2023/09/17 00:45:29;;;;;;;1099.07;991.83;;;18.50;99.90;;;;;;5034161;28;20533;-63
2023/09/17 00:47:56;;;;;;;1150.73;999.90;;;18.60;99.90;;;;;;5034097;28;20449;-63
2023/09/17 00:50:24;;;;;;;1148.73;999.90;;;18.60;99.90;;;;;;5033246;28;20560;-62
2023/09/17 00:52:52;;;;;;;1178.63;999.90;;;18.60;99.90;;;;;;5033911;28;20541;-62
2023/09/17 00:55:19;;;;;;;1244.23;999.90;;;18.60;99.90;;;;;;5034278;28;20520;-62
2023/09/17 00:57:46;;;;;;;1259.43;999.90;;;18.50;99.90;;;;;;5034006;28;20482;-62
2023/09/17 01:00:14;;;;;;;1273.93;999.90;;;18.50;99.90;;;;;;5032922;28;20595;-62
2023/09/17 01:02:42;;;;;;;1289.07;999.90;;;18.50;99.90;;;;;;5033906;28;20459;-62
2023/09/17 01:05:10;;;;;;;1291.77;999.90;;;18.60;99.90;;;;;;5034103;28;20510;-62
2023/09/17 01:07:38;;;;;;;1283.27;999.90;;;18.50;99.90;;;;;;5033839;28;20817;-62
2023/09/17 01:10:08;;;;;;;1286.17;999.90;;;18.50;99.90;;;;;;5033158;28;20469;-62
2023/09/17 01:12:35;;;;;;;1289.93;999.90;;;18.50;99.90;;;;;;5033749;28;20451;-62
2023/09/17 01:15:04;;;;;;;1271.77;999.90;;;18.50;99.90;;;;;;5033666;28;20481;-62
2023/09/17 01:17:31;;;;;;;1271.10;999.90;;;18.50;99.90;;;;;;5033806;28;20452;-62
2023/09/17 01:19:59;;;;;;;1266.00;999.90;;;18.50;99.90;;;;;;5033043;28;20529;-62
2023/09/17 01:22:32;;;;;;;1278.37;999.90;;;18.50;99.90;;;;;;5033708;28;20507;-63
2023/09/17 01:25:05;;;;;;;1276.10;999.90;;;18.50;99.90;;;;;;5033696;28;20808;-62
2023/09/17 01:27:35;;;;;;;1280.80;999.90;;;18.50;99.90;;;;;;5033210;28;20691;-62
2023/09/17 01:30:05;;;;;;;1282.73;999.90;;;18.50;99.90;;;;;;5032672;28;20538;-62
2023/09/17 01:32:32;;;;;;;1296.10;999.90;;;18.50;99.90;;;;;;5033504;28;20831;-62
2023/09/17 01:34:59;;;;;;;1293.80;999.90;;;18.50;99.90;;;;;;5033302;28;20546;-63
2023/09/17 01:37:39;;;;;;;1299.30;999.90;;;18.60;99.90;;;;;;5033274;28;20453;-63
2023/09/17 01:40:11;;;;;;;1305.50;999.90;;;18.60;99.90;;;;;;5032411;28;20800;-62
2023/09/17 01:42:42;;;;;;;1302.57;999.90;;;18.60;99.90;;;;;;5033069;28;20448;-63
2023/09/17 01:45:13;;;;;;;1315.27;999.90;;;18.60;99.90;;;;;;5033193;28;20533;-63
2023/09/17 01:47:42;;;;;;;1329.47;999.90;;;18.60;99.90;;;;;;5033192;28;20464;-63
2023/09/17 01:50:11;;;;;;;1322.97;999.90;;;18.60;99.90;;;;;;5032831;28;20827;-63
2023/09/17 01:52:39;;;;;;;1317.90;999.90;;;18.50;99.90;;;;;;5032809;28;20460;-62
2023/09/17 01:55:08;;;;;;;1330.97;999.90;;;18.60;99.90;;;;;;5032895;28;20446;-62
2023/09/17 01:57:35;;;;;;;1326.70;999.90;;;18.50;99.90;;;;;;5032786;28;20820;-62
2023/09/17 02:00:14;;;;;;;1326.47;999.90;;;18.50;99.90;;;;;;5032280;28;20925;-62
2023/09/17 02:02:43;;;;;;;1313.40;999.90;;;18.50;99.90;;;;;;5032780;28;20533;-62
2023/09/17 02:05:10;;;;;;;1319.03;999.90;;;18.30;99.90;;;;;;5032525;28;21006;-62
2023/09/17 02:07:37;;;;;;;1281.27;999.90;;;18.50;99.90;;;;;;5032661;28;20525;-62
2023/09/17 02:10:05;;;;;;;1304.13;999.90;;;18.50;99.90;;;;;;5031854;28;20537;-62
2023/09/17 02:12:32;;;;;;;1305.53;999.90;;;18.50;99.90;;;;;;5031801;28;20533;-62
2023/09/17 02:14:59;;;;;;;1312.13;999.90;;;18.50;99.90;;;;;;5032641;28;20534;-63
2023/09/17 02:17:28;;;;;;;1318.60;999.90;;;18.50;99.90;;;;;;5032264;28;20458;-63
2023/09/17 02:19:55;;;;;;;1306.70;999.90;;;18.50;99.90;;;;;;5031379;28;20458;-63
2023/09/17 02:22:22;;;;;;;1297.67;999.90;;;18.50;99.90;;;;;;5032260;28;20537;-63
2023/09/17 02:24:49;;;;;;;1290.30;999.90;;;18.50;99.90;;;;;;5032363;28;20579;-62
2023/09/17 02:27:16;;;;;;;1293.20;999.90;;;18.50;99.90;;;;;;5032479;28;20538;-63
2023/09/17 02:29:43;;;;;;;1288.00;999.90;;;18.50;99.90;;;;;;5031836;28;20862;-63
2023/09/17 02:32:11;;;;;;;1309.37;999.90;;;18.50;99.90;;;;;;5031945;28;20474;-63
2023/09/17 02:34:39;;;;;;;1294.20;999.90;;;18.50;99.90;;;;;;5032107;28;20797;-63
2023/09/17 02:42:47;;;;;;;1295.40;999.90;;;18.50;99.90;;;;;;5070580;28;20471;-58
2023/09/17 02:45:14;;;;;;;1290.60;999.90;;;18.50;99.90;;;;;;5071201;28;20446;-58
2023/09/17 02:47:41;;;;;;;1283.63;999.90;;;18.60;99.90;;;;;;5071497;28;20453;-58
2023/09/17 02:50:10;;;;;;;1288.23;999.90;;;18.50;99.90;;;;;;5070993;28;20488;-58
2023/09/17 02:52:37;;;;;;;1286.03;999.90;;;18.60;99.90;;;;;;5087605;28;20810;-58
2023/09/17 02:55:05;;;;;;;1241.63;999.90;;;18.60;99.90;;;;;;5091341;28;20446;-58
2023/09/17 02:57:32;;;;;;;1239.47;999.90;;;18.50;99.90;;;;;;5091495;28;20663;-58
2023/09/17 02:59:59;;;;;;;1265.30;999.90;;;18.60;99.90;;;;;;5090787;28;20445;-58
2023/09/17 03:02:26;;;;;;;1256.00;999.90;;;18.50;99.90;;;;;;5076204;28;20534;-58
2023/09/17 03:04:56;;;;;;;1281.53;999.90;;;18.50;99.90;;;;;;5071154;28;20447;-58
2023/09/17 03:07:24;;;;;;;1277.30;999.90;;;18.50;99.90;;;;;;5071373;28;20483;-58
2023/09/17 03:09:51;;;;;;;1289.90;999.90;;;18.50;99.90;;;;;;5070401;28;20450;-58
2023/09/17 03:12:18;;;;;;;1289.33;999.90;;;18.50;99.90;;;;;;5070765;28;20483;-58
2023/09/17 03:14:45;;;;;;;1297.53;999.90;;;18.50;99.90;;;;;;5071133;28;20454;-58
2023/09/17 03:17:12;;;;;;;1301.43;999.90;;;18.50;99.90;;;;;;5071179;28;20479;-58
2023/09/17 03:19:39;;;;;;;1289.33;999.90;;;18.50;99.90;;;;;;5071339;28;20461;-58
2023/09/17 03:22:06;;;;;;;1312.80;999.90;;;18.50;99.90;;;;;;5073872;28;20858;-58
2023/09/17 03:24:34;;;;;;;1311.53;999.90;;;18.50;99.90;;;;;;5070597;28;20447;-58
2023/09/17 03:27:01;;;;;;;1319.97;999.90;;;18.50;99.90;;;;;;5070736;28;20451;-58
2023/09/17 03:29:28;;;;;;;1338.37;999.90;;;18.40;99.90;;;;;;5070526;28;20452;-58
2023/09/17 03:31:55;;;;;;;1323.23;999.90;;;18.40;99.90;;;;;;5070758;28;20861;-58
2023/09/17 03:34:22;;;;;;;1304.70;999.90;;;18.40;99.90;;;;;;5070937;28;20854;-58
2023/09/17 03:36:48;;;;;;;1284.07;999.90;;;18.40;99.90;;;;;;5070666;28;20543;-58
2023/09/17 03:39:15;;;;;;;1295.17;999.90;;;18.50;99.90;;;;;;5070237;28;20816;-58
2023/09/17 03:41:43;;;;;;;1301.97;999.90;;;18.40;99.90;;;;;;5070408;28;20469;-59
2023/09/17 03:44:10;;;;;;;1311.47;999.90;;;18.40;99.90;;;;;;5070703;28;20450;-58
2023/09/17 03:46:37;;;;;;;1302.67;999.90;;;18.40;99.90;;;;;;5070708;28;20842;-58
2023/09/17 03:49:04;;;;;;;1301.07;999.90;;;18.50;99.90;;;;;;5070674;28;20453;-58
2023/09/17 03:51:32;;;;;;;1307.53;999.90;;;18.40;99.90;;;;;;5070093;28;21032;-58
2023/09/17 03:53:59;;;;;;;1285.90;999.90;;;18.40;99.90;;;;;;5070317;28;21041;-58
2023/09/17 03:56:26;;;;;;;1275.87;999.90;;;18.50;99.90;;;;;;5070692;28;20878;-58
2023/09/17 03:58:55;;;;;;;1298.37;999.90;;;18.40;99.90;;;;;;5070516;28;20453;-58
2023/09/17 04:01:23;;;;;;;1287.93;999.90;;;18.40;99.90;;;;;;5070104;28;20455;-58
2023/09/17 04:03:50;;;;;;;1278.40;999.90;;;18.40;99.90;;;;;;5070479;28;20969;-58
2023/09/17 04:06:18;;;;;;;1267.23;999.90;;;18.40;99.90;;;;;;5070466;28;20802;-58
2023/09/17 04:08:45;;;;;;;1281.13;999.90;;;18.40;99.90;;;;;;5070005;28;21055;-58
2023/09/17 04:11:15;;;;;;;1300.50;999.90;;;18.40;99.90;;;;;;5069836;28;20481;-58
2023/09/17 04:13:43;;;;;;;1309.03;999.90;;;18.40;99.90;;;;;;5070552;28;20536;-58
2023/09/17 04:16:12;;;;;;;1300.87;999.90;;;18.40;99.90;;;;;;5085267;28;20555;-58
2023/09/17 04:18:39;;;;;;;1292.33;999.90;;;18.40;99.90;;;;;;5082283;28;20457;-58
2023/09/17 04:21:05;;;;;;;1282.00;999.90;;;18.40;99.90;;;;;;5078966;28;20449;-59
2023/09/17 04:23:32;;;;;;;1310.90;999.90;;;18.40;99.90;;;;;;5081873;28;20472;-59
2023/09/17 04:25:59;;;;;;;1314.07;999.90;;;18.40;99.90;;;;;;5079594;28;20979;-59
2023/09/17 04:28:26;;;;;;;1334.70;999.90;;;18.50;99.90;;;;;;5078660;28;20452;-59
2023/09/17 04:30:53;;;;;;;1319.50;999.90;;;18.50;99.90;;;;;;5089782;28;20567;-59
2023/09/17 04:33:21;;;;;;;1329.40;999.90;;;18.30;99.90;;;;;;5074105;28;20562;-59
2023/09/17 04:35:48;;;;;;;1328.50;999.90;;;18.40;99.90;;;;;;5072251;28;20449;-59
2023/09/17 04:38:15;;;;;;;1338.17;999.90;;;18.20;99.90;;;;;;5073788;28;20450;-59
2023/09/17 04:40:42;;;;;;;1334.37;999.90;;;18.20;99.90;;;;;;5073265;28;20829;-59
2023/09/17 04:43:08;;;;;;;1338.17;999.90;;;18.20;99.90;;;;;;5073826;28;20594;-57
2023/09/17 04:45:38;;;;;;;1338.80;999.90;;;18.20;99.90;;;;;;5090549;28;20458;-59
2023/09/17 04:48:06;;;;;;;1336.97;999.90;;;18.20;99.90;;;;;;5093585;28;20501;-59
2023/09/17 04:50:34;;;;;;;1342.37;999.90;;;18.10;99.90;;;;;;5076189;28;20449;-59
2023/09/17 04:53:01;;;;;;;1324.47;999.90;;;18.10;99.90;;;;;;5085879;28;20975;-59
2023/09/17 04:55:28;;;;;;;1332.37;999.90;;;18.10;99.90;;;;;;5080865;28;20456;-59
2023/09/17 04:57:55;;;;;;;1318.97;999.90;;;18.00;99.90;;;;;;5091005;28;20961;-59
2023/09/17 05:00:22;;;;;;;1320.77;999.90;;;17.90;99.90;;;;;;5072405;28;20454;-58
2023/09/17 05:02:49;;;;;;;1325.13;999.90;;;18.00;99.90;;;;;;5083211;28;20447;-58
2023/09/17 05:05:18;;;;;;;1321.07;999.90;;;17.90;99.90;;;;;;5093123;28;20458;-58
2023/09/17 05:07:48;;;;;;;1317.07;999.90;;;17.90;99.90;;;;;;5092986;28;20458;-58
2023/09/17 05:10:15;;;;;;;1317.50;999.90;;;17.80;99.90;;;;;;5091328;28;20450;-58
2023/09/17 05:12:43;;;;;;;1344.10;999.90;;;17.80;99.90;;;;;;5082266;28;20556;-58
2023/09/17 05:15:11;;;;;;;1331.50;999.90;;;17.70;99.90;;;;;;5084538;28;20452;-59
2023/09/17 05:17:38;;;;;;;1314.00;999.90;;;17.70;99.90;;;;;;5081287;28;20496;-59
2023/09/17 05:20:07;;;;;;;1299.07;999.90;;;17.60;99.90;;;;;;5076504;28;20484;-59
2023/09/17 05:22:34;;;;;;;1284.67;999.90;;;17.60;99.90;;;;;;5079892;28;20953;-59
2023/09/17 05:25:03;;;;;;;1303.73;999.90;;;17.60;99.90;;;;;;5079419;28;20457;-59
2023/09/17 05:27:30;;;;;;;1313.33;999.90;;;17.50;99.90;;;;;;5073987;28;20451;-59
2023/09/17 05:29:57;;;;;;;1294.30;999.90;;;17.60;99.90;;;;;;5090692;28;20477;-59
2023/09/17 05:32:24;;;;;;;1312.63;999.90;;;17.60;99.90;;;;;;5091897;28;20985;-59
2023/09/17 05:34:50;;;;;;;1317.00;999.90;;;17.70;99.90;;;;;;5093148;28;20451;-59
2023/09/17 05:37:17;;;;;;;1313.47;999.90;;;17.80;99.90;;;;;;5092181;28;20450;-59
2023/09/17 05:39:44;;;;;;;1324.77;999.90;;;17.80;99.90;;;;;;5074476;28;20479;-59
2023/09/17 05:42:12;;;;;;;1343.07;999.90;;;17.80;99.90;;;;;;5084647;28;20459;-59
2023/09/17 05:44:39;;;;;;;1356.37;999.90;;;17.90;99.90;;;;;;5072654;28;20479;-59
2023/09/17 05:47:06;;;;;;;1339.67;999.90;;;17.90;99.90;;;;;;5083868;28;20446;-59
2023/09/17 05:49:33;;;;;;;1343.93;999.90;;;17.90;99.90;;;;;;5092177;28;20535;-58
2023/09/17 05:52:00;;;;;;;1336.90;999.90;;;17.90;99.90;;;;;;5092472;28;20578;-58
2023/09/17 05:54:27;;;;;;;1348.50;999.90;;;17.90;99.90;;;;;;5092915;28;20470;-58
2023/09/17 05:56:54;;;;;;;1355.20;999.90;;;17.90;99.90;;;;;;5092728;28;20458;-58
2023/09/17 05:59:22;;;;;;;1343.20;999.90;;;17.90;99.90;;;;;;5092199;28;20456;-58
2023/09/17 06:01:50;;;;;;;1351.67;999.90;;;18.00;99.90;;;;;;5091867;28;20473;-58
2023/09/17 06:04:16;;;;;;;1345.07;999.90;;;18.10;99.90;;;;;;5092160;28;20462;-58
2023/09/17 06:06:43;;;;;;;1356.60;999.90;;;18.10;99.90;;;;;;5091527;28;20985;-58
2023/09/17 06:09:10;;;;;;;1357.07;999.90;;;18.10;99.90;;;;;;5082386;28;20453;-58
2023/09/17 06:11:37;;;;;;;1367.63;999.90;;;18.20;99.90;;;;;;5083579;28;20504;-58
2023/09/17 06:14:04;;;;;;;1372.57;999.90;;;18.20;99.90;;;;;;5092104;28;20452;-58
2023/09/17 06:16:32;;;;;;;1344.57;999.90;;;18.30;99.90;;;;;;5090279;28;20470;-58
2023/09/17 06:18:59;;;;;;;1357.77;999.90;;;18.30;99.90;;;;;;5091433;28;20472;-58
2023/09/17 06:21:26;;;;;;;1353.87;999.90;;;18.40;99.90;;;;;;5090987;28;20534;-58
2023/09/17 06:23:53;;;;;;;1363.20;999.90;;;18.50;99.90;;;;;;5082721;28;20464;-58
2023/09/17 06:26:19;;;;;;;1354.23;999.90;;;18.50;99.90;;;;;;5071953;28;20884;-58
2023/09/17 06:28:46;;;;;;;1375.83;999.90;;;18.50;99.90;;;;;;5076820;28;20558;-58
2023/09/17 06:31:13;;;;;;;1364.97;999.90;;;18.60;99.90;;;;;;5080388;28;20966;-58
2023/09/17 06:33:41;;;;;;;1352.03;999.90;;;18.70;99.90;;;;;;5088538;28;20524;-58
2023/09/17 06:36:09;;;;;;;1367.40;999.90;;;18.80;99.90;;;;;;5092462;28;20553;-58
2023/09/17 06:38:35;;;;;;;1357.60;999.90;;;18.80;99.90;;;;;;5090378;28;20905;-58
2023/09/17 06:41:02;;;;;;;1360.70;999.90;;;18.90;99.90;;;;;;5071685;28;20460;-59
2023/09/17 06:43:30;;;;;;;1363.97;999.90;;;19.00;99.90;;;;;;5072259;28;20444;-58
2023/09/17 06:45:58;;;;;;;1368.73;999.90;;;19.00;99.90;;;;;;5072124;28;20450;-58
2023/09/17 06:48:25;;;;;;;1366.03;999.90;;;19.10;99.90;;;;;;5072075;28;20454;-59
2023/09/17 06:50:53;;;;;;;1369.83;999.90;;;19.10;99.90;;;;;;5071412;28;20447;-58
2023/09/17 06:53:20;;;;;;;1356.43;999.90;;;19.10;99.90;;;;;;5071079;28;20474;-58
2023/09/17 06:55:47;;;;;;;1347.13;999.90;;;19.20;99.90;;;;;;5071156;28;20450;-59
2023/09/17 06:58:16;;;;;;;1351.73;999.90;;;19.20;99.90;;;;;;5090079;28;20545;-58
2023/09/17 07:00:43;;;;;;;1365.80;999.90;;;19.20;99.90;;;;;;5090619;28;20447;-59
2023/09/17 07:03:10;;;;;;;1366.90;999.90;;;19.20;99.90;;;;;;5090701;28;20949;-59
2023/09/17 07:05:37;;;;;;;1351.97;999.90;;;19.30;99.90;;;;;;5090839;28;20540;-59
2023/09/17 07:08:06;;;;;;;1354.37;999.90;;;19.30;99.90;;;;;;5090848;28;20953;-59
2023/09/17 07:10:33;;;;;;;1349.33;999.90;;;19.40;99.90;;;;;;5090337;28;20509;-60
2023/09/17 07:13:00;;;;;;;1349.17;999.90;;;19.40;99.90;;;;;;5090619;28;20487;-60
2023/09/17 07:15:27;;;;;;;1341.30;999.90;;;19.50;99.90;;;;;;5090467;28;20452;-60
2023/09/17 07:17:55;;;;;;;1317.50;999.90;;;19.50;99.90;;;;;;5088482;28;20447;-59
2023/09/17 07:20:21;;;;;;;1280.67;999.90;;;19.60;99.90;;;;;;5070136;28;20825;-59
2023/09/17 07:22:49;;;;;;;1240.93;999.90;;;19.60;99.90;;;;;;5070565;28;21038;-59
2023/09/17 07:25:17;;;;;;;1185.53;999.90;;;19.60;99.90;;;;;;5071017;28;20451;-60
2023/09/17 07:27:44;;;;;;;1087.03;971.00;;;19.70;99.90;;;;;;5070483;28;20502;-59
2023/09/17 07:30:12;;;;;;;1019.97;909.27;;;19.70;99.90;;;;;;5069408;28;20542;-60
2023/09/17 07:32:39;;;;;;;997.53;892.30;;;19.80;99.90;;;;;;5070007;28;20465;-60
2023/09/17 07:35:08;;;;;;;990.33;890.53;;;19.80;99.90;;;;;;5069939;28;20552;-60
2023/09/17 07:37:34;;;;;;;978.10;883.90;;;19.80;99.90;;;;;;5076912;28;20474;-61
2023/09/17 07:40:05;;;;;;;984.07;890.80;;;19.90;99.90;;;;;;5090071;28;21124;-61
2023/09/17 07:42:33;;;;;;;984.57;898.80;;;19.90;99.90;;;;;;5089110;28;20464;-61
2023/09/17 07:45:00;;;;;;;968.07;887.73;;;19.90;99.90;;;;;;5070045;28;20451;-61
2023/09/17 07:47:27;;;;;;;959.53;885.40;;;20.00;99.90;;;;;;5078596;28;20455;-61
2023/09/17 07:49:54;;;;;;;948.07;873.30;;;20.00;99.90;;;;;;5072789;28;20452;-61
2023/09/17 07:52:21;;;;;;;951.13;875.60;;;20.20;99.90;;;;;;5083752;28;20538;-61
2023/09/17 07:54:47;;;;;;;946.63;873.80;;;20.30;99.90;;;;;;5090295;28;20539;-61
2023/09/17 07:57:15;;;;;;;949.73;875.03;;;20.40;99.90;;;;;;5088193;28;20454;-61
2023/09/17 07:59:44;;;;;;;936.97;868.17;;;20.50;99.90;;;;;;5080566;28;20455;-61
2023/09/17 08:02:11;;;;;;;897.20;838.83;;;20.60;99.90;;;;;;5090370;28;20454;-61
2023/09/17 08:04:38;;;;;;;889.30;833.53;;;20.70;99.90;;;;;;5076727;28;20533;-61
2023/09/17 08:07:05;;;;;;;862.53;811.13;;;20.80;99.90;;;;;;5089887;28;20817;-63
2023/09/17 08:09:32;;;;;;;821.43;775.87;;;21.00;99.90;;;;;;5090562;28;20452;-62
2023/09/17 08:12:00;;;;;;;811.63;768.27;;;21.30;99.90;;;;;;5094534;28;20932;-62
2023/09/17 08:14:28;;;;;;;696.20;666.90;;;21.50;99.90;;;;;;5094055;28;20449;-62
2023/09/17 08:16:56;;;;;;;430.77;415.93;;;21.80;99.90;;;;;;5092999;28;20491;-67
2023/09/17 08:19:23;;;;;;;200.27;193.07;;;22.00;99.90;;;;;;5085065;28;20449;-66
2023/09/17 08:21:50;;;;;;;79.37;75.77;;;22.20;99.90;;;;;;5088635;28;20547;-66
2023/09/17 08:24:20;;;;;;;68.40;65.23;;;22.40;99.90;;;;;;5093154;28;20448;-66
2023/09/17 08:26:47;;;;;;;130.47;125.23;;;22.50;99.90;;;;;;5090759;28;20492;-66
2023/09/17 08:29:14;;;;;;;30.97;29.10;;;22.60;99.90;;;;;;5088112;28;20536;-69
2023/09/17 08:31:41;;;;;;;23.25;21.35;;;22.70;99.90;;;;;;5073860;28;20556;-66
2023/09/17 08:34:09;;;;;;;15.47;14.07;;;22.80;99.90;;;;;;5087947;28;20261;-69
2023/09/17 08:36:38;;;;;;;15.17;13.83;;;22.90;99.90;;;;;;5094493;28;20445;-68
2023/09/17 08:39:07;;;;;;;11.97;10.77;;;23.00;99.90;;;;;;5109929;22;20484;-67
2023/09/17 08:41:35;;;;;;;13.13;12.03;;;23.20;99.90;;;;;;5095029;28;20444;-67
2023/09/17 08:44:04;;;;;;;12.20;9.80;;;23.40;99.90;;;;;;5095135;28;20437;-67
2023/09/17 08:46:32;;;;;;;11.17;8.47;;;23.50;99.90;;;;;;5095167;28;20453;-67
2023/09/17 08:48:59;;;;;;;8.80;7.03;;;23.70;99.90;;;;;;5095523;28;20441;-67
2023/09/17 08:51:30;;;;;;;11.23;9.40;;;23.80;99.90;;;;;;5095100;28;20661;-67
2023/09/17 08:54:05;;;;;;;8.20;6.20;;;24.00;99.90;;;;;;5095022;28;20484;-67
2023/09/17 08:56:32;;;;;;;11.00;6.80;;;24.00;99.90;;;;;;5095165;28;20449;-67
2023/09/17 08:59:02;;;;;;;8.00;5.30;;;24.20;99.90;;;;;;5094964;28;20507;-68
2023/09/17 09:01:30;;;;;;;7.70;5.27;;;24.40;99.90;;;;;;5094801;28;20445;-67
2023/09/17 09:03:57;;;;;;;8.27;5.17;;;24.60;99.90;;;;;;5094189;28;20950;-67
2023/09/17 09:06:28;;;;;;;6.70;4.90;;;24.50;99.90;;;;;;5094145;28;20472;-68
2023/09/17 09:08:56;;;;;;;9.83;6.13;;;25.00;99.90;;;;;;5094728;28;20534;-68
2023/09/17 09:11:23;;;;;;;10.60;5.27;;;25.10;99.90;;;;;;5094677;28;20454;-67
2023/09/17 09:13:53;;;;;;;7.47;5.00;;;25.10;99.90;;;;;;5094240;28;20477;-67
2023/09/17 09:16:20;;;;;;;7.57;5.30;;;25.10;99.90;;;;;;5094498;28;20445;-68
2023/09/17 09:18:47;;;;;;;11.90;6.60;;;25.50;99.90;;;;;;5094499;28;20449;-68
2023/09/17 09:21:14;;;;;;;10.40;6.37;;;25.70;99.90;;;;;;5094309;28;20603;-67
2023/09/17 09:23:42;;;;;;;7.10;4.93;;;25.70;99.90;;;;;;5094804;28;20452;-66
2023/09/17 09:26:09;;;;;;;7.20;5.10;;;25.60;99.90;;;;;;5094679;28;20445;-67
2023/09/17 09:28:36;;;;;;;8.57;5.57;;;25.50;99.90;;;;;;5094406;28;20460;-68
2023/09/17 09:31:04;;;;;;;9.23;5.27;;;25.80;99.90;;;;;;5094183;28;20468;-67
2023/09/17 09:33:31;;;;;;;10.37;6.00;;;25.90;99.90;;;;;;5094031;28;20517;-67
2023/09/17 09:36:00;;;;;;;7.57;4.50;;;26.10;99.90;;;;;;5094199;28;20449;-67
2023/09/17 09:38:27;;;;;;;8.50;5.20;;;25.90;99.90;;;;;;5105732;28;20491;-67
2023/09/17 09:40:55;;;;;;;8.33;4.87;;;26.30;99.90;;;;;;5114425;28;20444;-67
2023/09/17 09:43:32;;;;;;;9.63;5.03;;;26.20;99.90;;;;;;5114559;28;20444;-67
2023/09/17 09:46:04;;;;;;;7.80;4.97;;;26.50;99.90;;;;;;5114319;28;20462;-68
2023/09/17 09:48:31;;;;;;;8.30;5.13;;;26.60;97.70;;;;;;5114648;28;20449;-67
2023/09/17 09:50:58;;;;;;;6.73;4.13;;;26.90;95.40;;;;;;5114393;28;20449;-67
2023/09/17 09:53:25;;;;;;;10.53;5.17;;;26.90;94.30;;;;;;5114431;28;20475;-67
2023/09/17 09:55:52;;;;;;;7.90;4.80;;;26.90;94.30;;;;;;5114383;28;20551;-67
2023/09/17 09:58:21;;;;;;;8.50;4.80;;;26.90;94.60;;;;;;5113981;28;20467;-66
2023/09/17 10:00:48;;;;;;;6.47;4.10;;;26.80;94.30;;;;;;5113878;28;20935;-68
2023/09/17 10:03:17;;;;;;;7.70;4.00;;;27.00;94.40;;;;;;5114286;28;20441;-67
2023/09/17 10:05:45;;;;;;;6.00;3.50;;;27.10;94.10;;;;;;5114028;28;20451;-68
2023/09/17 10:08:13;;;;;;;9.23;4.60;;;27.40;91.00;;;;;;5113538;28;20449;-68
2023/09/17 10:10:41;;;;;;;8.03;3.83;;;27.90;84.80;;;;;;5113575;28;20531;-68
2023/09/17 10:13:09;;;;;;;7.83;4.30;;;28.20;76.90;;;;;;5113961;28;20476;-68
2023/09/17 10:15:40;;;;;;;9.93;4.20;;;28.30;76.90;;;;;;5113875;28;20539;-69
2023/09/17 10:18:09;;;;;;;6.67;4.37;;;28.50;74.50;;;;;;5113885;28;20444;-68
2023/09/17 10:20:36;;;;;;;7.80;4.10;;;28.80;71.50;;;;;;5113593;28;20444;-69
2023/09/17 10:23:05;;;;;;;7.43;4.90;;;28.90;67.20;;;;;;5113864;28;20443;-68
2023/09/17 10:25:32;;;;;;;8.40;5.10;;;29.10;60.80;;;;;;5113635;28;20951;-68
2023/09/17 10:28:01;;;;;;;6.40;4.20;;;29.40;61.00;;;;;;5113878;28;20453;-67
2023/09/17 10:30:29;;;;;;;8.00;4.77;;;29.10;60.80;;;;;;5113567;28;20548;-69
2023/09/17 10:32:59;;;;;;;7.93;4.83;;;29.30;60.90;;;;;;5113001;28;20476;-69
2023/09/17 10:35:27;;;;;;;7.97;4.67;;;29.40;49.30;;;;;;5113029;28;20449;-68
2023/09/17 10:37:58;;;;;;;7.53;4.50;;;30.00;54.00;;;;;;5112899;28;20456;-68
2023/09/17 10:40:26;;;;;;;9.93;4.80;;;30.30;43.80;;;;;;5113338;28;20870;-68
2023/09/17 10:42:55;;;;;;;7.27;4.10;;;30.00;43.50;;;;;;5113381;28;20450;-68
2023/09/17 10:45:24;;;;;;;7.53;4.73;;;30.00;42.20;;;;;;5113467;28;20455;-67
2023/09/17 10:47:53;;;;;;;7.07;4.20;;;30.00;34.60;;;;;;5113175;28;20448;-69
2023/09/17 10:50:22;;;;;;;7.37;4.40;;;30.50;42.30;;;;;;5113004;28;20444;-68
2023/09/17 10:52:49;;;;;;;7.60;4.13;;;30.60;42.40;;;;;;5113342;28;20471;-68
2023/09/17 10:55:16;;;;;;;11.03;4.60;;;30.60;34.70;;;;;;5113285;28;20449;-68
2023/09/17 10:57:47;;;;;;;8.57;4.97;;;30.70;34.70;;;;;;5113284;28;20419;-68
2023/09/17 11:00:18;;;;;;;7.97;3.70;;;31.10;35.00;;;;;;5113048;28;20459;-67
2023/09/17 11:02:50;;;;;;;7.17;4.17;;;31.70;27.00;;;;;;5112626;28;20476;-68
2023/09/17 11:05:24;;;;;;;7.37;4.57;;;31.80;27.10;;;;;;5112374;28;20452;-68
2023/09/17 11:07:52;;;;;;;9.43;4.10;;;32.00;19.70;;;;;;5112369;28;20448;-69
2023/09/17 11:10:20;;;;;;;6.50;3.77;;;31.90;19.60;;;;;;5112126;28;20487;-66
2023/09/17 11:12:48;;;;;;;5.93;3.20;;;31.80;19.60;;;;;;5112669;28;20501;-67
2023/09/17 11:15:16;;;;;;;7.40;3.30;;;32.30;21.20;;;;;;5112806;28;20946;-68
2023/09/17 11:17:43;;;;;;;11.10;4.03;;;32.00;16.00;;;;;;5112616;28;20444;-68
2023/09/17 11:20:13;;;;;;;6.53;4.00;;;32.00;14.80;;;;;;5112717;28;20455;-68
2023/09/17 11:22:43;;;;;;;9.50;4.37;;;32.10;12.00;;;;;;5112662;28;20455;-68
2023/09/17 11:25:11;;;;;;;7.30;4.10;;;32.80;12.40;;;;;;5112960;28;20467;-68
2023/09/17 11:27:49;;;;;;;6.83;3.67;;;32.60;12.30;;;;;;5112782;28;20474;-68
2023/09/17 11:30:17;;;;;;;7.03;3.70;;;33.10;12.60;;;;;;5112451;28;20448;-68
2023/09/17 11:32:52;;;;;;;8.60;3.40;;;33.80;7.70;;;;;;5112390;28;20451;-66
2023/09/17 11:35:22;;;;;;;6.57;4.10;;;33.50;4.40;;;;;;5112383;28;20448;-67
2023/09/17 11:37:51;;;;;;;8.83;4.00;;;33.60;7.90;;;;;;5112625;28;20453;-68
2023/09/17 11:40:19;;;;;;;7.33;3.93;;;34.10;5.20;;;;;;5112426;28;20423;-66
2023/09/17 11:42:46;;;;;;;7.07;3.67;;;34.40;1.00;;;;;;5112476;28;20474;-67
2023/09/17 11:45:14;;;;;;;8.60;4.07;;;34.10;1.00;;;;;;5116113;28;20448;-68
2023/09/17 11:47:41;;;;;;;7.40;4.30;;;34.00;1.00;;;;;;5116938;28;20448;-68
2023/09/17 11:50:09;;;;;;;8.37;3.80;;;33.50;1.00;;;;;;5116744;28;20764;-69
2023/09/17 11:52:37;;;;;;;6.70;3.73;;;33.40;1.00;;;;;;5116693;28;20535;-69
2023/09/17 11:55:11;;;;;;;6.30;3.80;;;33.10;1.00;;;;;;5116499;28;20476;-69
2023/09/17 11:57:38;;;;;;;6.63;4.00;;;33.00;1.00;;;;;;5116850;28;20483;-67
2023/09/17 12:00:09;;;;;;;6.10;2.87;;;33.10;1.00;;;;;;5116550;28;20451;-68
2023/09/17 12:02:37;;;;;;;6.03;3.67;;;33.10;1.00;;;;;;5116228;28;20448;-68
2023/09/17 12:05:05;;;;;;;7.63;4.00;;;33.20;1.00;;;;;;5116379;28;20448;-68
2023/09/17 12:07:33;;;;;;;6.93;3.83;;;33.30;1.00;;;;;;5115538;28;20474;-66
2023/09/17 12:10:05;;;;;;;9.37;3.50;;;32.90;1.00;;;;;;5116188;28;20452;-68
2023/09/17 12:12:35;;;;;;;5.80;3.07;;;33.10;1.40;;;;;;5116263;28;20525;-69
2023/09/17 12:15:03;;;;;;;8.27;3.53;;;33.10;1.00;;;;;;5116341;28;20484;-67
2023/09/17 12:17:33;;;;;;;6.40;3.63;;;33.70;1.00;;;;;;5116190;28;20459;-68
2023/09/17 12:20:12;;;;;;;8.00;4.20;;;33.60;1.00;;;;;;5115861;28;20824;-68
2023/09/17 12:22:39;;;;;;;9.93;3.70;;;33.20;1.00;;;;;;5116399;28;20486;-69